createdAt,value
2022-12-27T00:00:43.475Z,97724.44
2022-12-27T00:01:45.647Z,97724.91
2022-12-27T00:02:47.294Z,97734.47
2022-12-27T00:03:49.541Z,97728.63
2022-12-27T00:04:51.322Z,97732.59
2022-12-27T00:05:52.954Z,97731.03
2022-12-27T00:06:54.849Z,97731.59
2022-12-27T00:07:56.405Z,97726.31
2022-12-27T00:08:58.962Z,97718.63
2022-12-27T00:10:00.583Z,97717.31
2022-12-27T00:11:11.727Z,97719.66
2022-12-27T00:12:13.322Z,97720.22
2022-12-27T00:13:14.890Z,97715.44
2022-12-27T00:14:16.450Z,97708.28
2022-12-27T00:15:18.050Z,97714.91
2022-12-27T00:16:21.119Z,97713.84
2022-12-27T00:17:22.758Z,97713.31
2022-12-27T00:18:24.356Z,97717.56
2022-12-27T00:19:25.904Z,97717.56
2022-12-27T00:20:27.465Z,97720.75
2022-12-27T00:21:29.136Z,97718.63
2022-12-27T00:22:30.654Z,97726.06
2022-12-27T00:23:37.944Z,97719.66
2022-12-27T00:24:40.315Z,97717.31
2022-12-27T00:25:41.847Z,97717.31
2022-12-27T00:26:43.388Z,97709.59
2022-12-27T00:27:44.905Z,97718.91
2022-12-27T00:28:46.557Z,97718.09
2022-12-27T00:29:48.098Z,97719.16
2022-12-27T00:30:54.717Z,97715.44
2022-12-27T00:31:56.398Z,97717.03
2022-12-27T00:32:57.927Z,97712.78
2022-12-27T00:34:01.802Z,97713.31
2022-12-27T00:35:03.677Z,97715.97
2022-12-27T00:36:08.193Z,97719.66
2022-12-27T00:37:09.733Z,97722.06
2022-12-27T00:38:11.243Z,97720.75
2022-12-27T00:39:12.781Z,97727.88
2022-12-27T00:40:14.326Z,97721.25
2022-12-27T00:41:17.301Z,97719.94
2022-12-27T00:42:18.857Z,97717.53
2022-12-27T00:43:20.419Z,97713.31
2022-12-27T00:44:21.948Z,97711.72
2022-12-27T00:45:23.522Z,97719.66
2022-12-27T00:46:25.145Z,97711.69
2022-12-27T00:47:26.653Z,97721.00
2022-12-27T00:48:28.337Z,97705.09
2022-12-27T00:49:29.970Z,97701.09
2022-12-27T00:50:31.628Z,97709.31
2022-12-27T00:51:33.223Z,97712.75
2022-12-27T00:52:34.776Z,97711.44
2022-12-27T00:53:37.044Z,97703.75
2022-12-27T00:54:38.775Z,97709.03
2022-12-27T00:55:44.005Z,97706.66
2022-12-27T00:56:45.604Z,97709.81
2022-12-27T00:57:47.172Z,97713.50
2022-12-27T00:58:53.265Z,97704.47
2022-12-27T00:59:54.942Z,97700.50
2022-12-27T01:01:09.263Z,97700.47
2022-12-27T01:02:10.837Z,97705.47
2022-12-27T01:03:12.407Z,97698.28
2022-12-27T01:04:14.649Z,97704.63
2022-12-27T01:05:16.731Z,97700.38
2022-12-27T01:06:22.786Z,97705.59
2022-12-27T01:07:24.890Z,97704.22
2022-12-27T01:08:26.461Z,97705.59
2022-12-27T01:09:28.054Z,97714.09
2022-12-27T01:10:29.577Z,97710.41
2022-12-27T01:11:32.097Z,97709.41
2022-12-27T01:12:35.040Z,97712.09
2022-12-27T01:13:36.973Z,97710.53
2022-12-27T01:14:38.522Z,97708.44
2022-12-27T01:15:42.466Z,97714.28
2022-12-27T01:16:44.343Z,97706.09
2022-12-27T01:17:45.973Z,97709.81
2022-12-27T01:18:48.327Z,97706.38
2022-12-27T01:19:49.855Z,97711.97
2022-12-27T01:20:51.441Z,97718.06
2022-12-27T01:21:53.007Z,97711.69
2022-12-27T01:22:54.945Z,97710.66
2022-12-27T01:23:56.661Z,97703.75
2022-12-27T01:24:58.173Z,97697.38
2022-12-27T01:26:01.917Z,97700.03
2022-12-27T01:27:03.516Z,97701.91
2022-12-27T01:28:05.277Z,97698.19
2022-12-27T01:29:06.789Z,97695.28
2022-12-27T01:30:09.125Z,97695.28
2022-12-27T01:31:14.329Z,97689.44
2022-12-27T01:32:15.899Z,97682.84
2022-12-27T01:33:17.446Z,97686.78
2022-12-27T01:34:19.210Z,97683.09
2022-12-27T01:35:20.736Z,97693.13
2022-12-27T01:36:23.923Z,97683.34
2022-12-27T01:37:28.864Z,97682.03
2022-12-27T01:38:30.468Z,97693.13
2022-12-27T01:39:32.079Z,97690.47
2022-12-27T01:40:36.349Z,97688.13
2022-12-27T01:42:00.633Z,97680.69
2022-12-27T01:43:02.403Z,97682.03
2022-12-27T01:44:34.724Z,97685.72
2022-12-27T01:45:37.142Z,97692.09
2022-12-27T01:46:38.760Z,97686.00
2022-12-27T01:47:58.973Z,97684.13
2022-12-27T01:49:03.243Z,97684.16
2022-12-27T01:50:29.817Z,97688.66
2022-12-27T01:51:31.451Z,97691.03
2022-12-27T01:52:39.775Z,97700.34
2022-12-27T01:53:44.773Z,97687.84
2022-12-27T01:54:46.674Z,97688.13
2022-12-27T01:56:00.312Z,97679.88
2022-12-27T01:57:02.692Z,97685.19
2022-12-27T01:58:13.294Z,97675.66
2022-12-27T01:59:15.316Z,97690.53
2022-12-27T02:00:17.610Z,97683.88
2022-12-27T02:01:23.508Z,97686.78
2022-12-27T02:02:25.318Z,97682.81
2022-12-27T02:03:30.205Z,97682.25
2022-12-27T02:04:32.785Z,97677.50
2022-12-27T02:05:35.327Z,97683.06
2022-12-27T02:06:39.470Z,97689.16
2022-12-27T02:07:55.749Z,97689.41
2022-12-27T02:09:28.491Z,97687.53
2022-12-27T02:10:31.248Z,97681.44
2022-12-27T02:11:51.161Z,97689.41
2022-12-27T02:12:52.944Z,97691.25
2022-12-27T02:13:54.674Z,97701.59
2022-12-27T02:14:56.196Z,97696.31
2022-12-27T02:15:57.756Z,97694.72
2022-12-27T02:17:02.188Z,97698.72
2022-12-27T02:18:04.250Z,97679.59
2022-12-27T02:19:30.723Z,97687.31
2022-12-27T02:20:59.178Z,97694.25
2022-12-27T02:22:15.878Z,97687.34
2022-12-27T02:23:50.065Z,97682.03
2022-12-27T02:25:03.690Z,97685.19
2022-12-27T02:26:14.366Z,97687.09
2022-12-27T02:27:34.480Z,97690.00
2022-12-27T02:29:05.334Z,97694.25
2022-12-27T02:30:10.113Z,97688.94
2022-12-27T02:31:17.080Z,97694.75
2022-12-27T02:32:49.566Z,97692.66
2022-12-27T02:33:53.325Z,97690.00
2022-12-27T02:35:14.678Z,97694.75
2022-12-27T02:36:23.869Z,97694.50
2022-12-27T02:37:29.342Z,97701.09
2022-12-27T02:38:36.202Z,97692.09
2022-12-27T02:39:42.211Z,97691.31
2022-12-27T02:41:04.253Z,97688.94
2022-12-27T02:42:25.084Z,97685.19
2022-12-27T02:43:46.887Z,97684.59
2022-12-27T02:45:07.401Z,97701.81
2022-12-27T02:46:35.795Z,97701.03
2022-12-27T02:47:56.457Z,97693.63
2022-12-27T02:49:17.526Z,97693.59
2022-12-27T02:50:37.979Z,97704.69
2022-12-27T02:52:24.973Z,97703.16
2022-12-27T02:53:57.993Z,97700.50
2022-12-27T02:54:59.503Z,97704.97
2022-12-27T02:56:35.158Z,97707.78
2022-12-27T02:57:55.557Z,97692.38
2022-12-27T02:59:15.859Z,97684.19
2022-12-27T03:00:38.398Z,97693.75
2022-12-27T03:01:58.297Z,97700.69
2022-12-27T03:03:21.138Z,97694.59
2022-12-27T03:04:22.645Z,97690.88
2022-12-27T03:06:09.439Z,97686.63
2022-12-27T03:07:17.384Z,97685.56
2022-12-27T03:08:31.689Z,97690.91
2022-12-27T03:10:01.728Z,97696.75
2022-12-27T03:11:21.989Z,97704.66
2022-12-27T03:13:19.579Z,97691.41
2022-12-27T03:14:47.443Z,97687.41
2022-12-27T03:16:08.812Z,97697.00
2022-12-27T03:17:49.043Z,97690.94
2022-12-27T03:19:02.960Z,97680.06
2022-12-27T03:20:28.123Z,97696.41
2022-12-27T03:21:52.965Z,97712.59
2022-12-27T03:23:15.230Z,97708.31
2022-12-27T03:24:38.128Z,97699.44
2022-12-27T03:25:42.664Z,97685.09
2022-12-27T03:26:50.148Z,97688.41
2022-12-27T03:28:12.834Z,97695.16
2022-12-27T03:29:36.756Z,97701.13
2022-12-27T03:30:58.774Z,97711.19
2022-12-27T03:32:23.726Z,97719.09
2022-12-27T03:33:27.570Z,97720.69
2022-12-27T03:34:36.007Z,97700.59
2022-12-27T03:36:06.820Z,97696.88
2022-12-27T03:37:32.616Z,97707.38
2022-12-27T03:38:43.309Z,97715.38
2022-12-27T03:40:08.105Z,97714.88
2022-12-27T03:41:51.604Z,97707.50
2022-12-27T03:43:13.911Z,97701.09
2022-12-27T03:44:25.073Z,97703.66
2022-12-27T03:45:53.340Z,97716.34
2022-12-27T03:47:00.736Z,97705.78
2022-12-27T03:48:06.305Z,97696.34
2022-12-27T03:49:19.986Z,97698.06
2022-12-27T03:50:28.548Z,97713.00
2022-12-27T03:51:36.089Z,97707.59
2022-12-27T03:53:00.946Z,97693.09
2022-12-27T03:54:10.447Z,97693.00
2022-12-27T03:55:12.598Z,97698.53
2022-12-27T03:56:14.379Z,97693.97
2022-12-27T03:57:19.155Z,97699.97
2022-12-27T03:58:21.027Z,97700.56
2022-12-27T03:59:22.867Z,97701.03
2022-12-27T04:00:24.450Z,97697.31
2022-12-27T04:01:26.090Z,97696.69
2022-12-27T04:02:27.911Z,97697.69
2022-12-27T04:03:29.586Z,97707.22
2022-12-27T04:04:31.494Z,97709.56
2022-12-27T04:05:33.009Z,97702.59
2022-12-27T04:06:34.511Z,97695.97
2022-12-27T04:07:36.102Z,97693.38
2022-12-27T04:08:56.095Z,97697.59
2022-12-27T04:10:16.154Z,97706.53
2022-12-27T04:11:36.154Z,97704.53
2022-12-27T04:12:56.790Z,97713.59
2022-12-27T04:14:16.671Z,97718.09
2022-12-27T04:15:36.609Z,97700.94
2022-12-27T04:16:56.729Z,97697.50
2022-12-27T04:18:16.810Z,97720.19
2022-12-27T04:19:36.668Z,97729.34
2022-12-27T04:20:57.007Z,97706.00
2022-12-27T04:22:17.301Z,97709.66
2022-12-27T04:23:37.530Z,97729.28
2022-12-27T04:24:57.686Z,97722.41
2022-12-27T04:26:17.750Z,97706.44
2022-12-27T04:27:37.545Z,97711.53
2022-12-27T04:28:57.709Z,97728.34
2022-12-27T04:30:18.157Z,97711.75
2022-12-27T04:31:38.845Z,97702.97
2022-12-27T04:32:59.156Z,97710.75
2022-12-27T04:34:19.226Z,97706.56
2022-12-27T04:35:21.351Z,97706.97
2022-12-27T04:36:22.915Z,97706.25
2022-12-27T04:37:24.444Z,97704.75
2022-12-27T04:38:25.955Z,97704.03
2022-12-27T04:39:27.546Z,97709.41
2022-12-27T04:40:47.418Z,97714.75
2022-12-27T04:42:07.343Z,97717.31
2022-12-27T04:43:28.191Z,97705.16
2022-12-27T04:44:48.553Z,97703.31
2022-12-27T04:46:08.577Z,97711.00
2022-12-27T04:47:37.627Z,97706.88
2022-12-27T04:48:58.076Z,97709.50
2022-12-27T04:50:18.656Z,97714.19
2022-12-27T04:51:38.845Z,97713.81
2022-12-27T04:52:58.803Z,97710.09
2022-12-27T04:54:18.671Z,97714.84
2022-12-27T04:55:21.975Z,97715.84
2022-12-27T04:56:23.491Z,97712.59
2022-12-27T04:57:26.873Z,97707.88
2022-12-27T04:58:28.832Z,97716.13
2022-12-27T04:59:48.712Z,97714.53
2022-12-27T05:01:14.008Z,97715.25
2022-12-27T05:02:18.290Z,97713.63
2022-12-27T05:03:23.259Z,97718.91
2022-12-27T05:04:25.232Z,97712.13
2022-12-27T05:05:27.312Z,97703.78
2022-12-27T05:06:28.905Z,97711.97
2022-12-27T05:07:49.472Z,97715.44
2022-12-27T05:09:09.529Z,97714.81
2022-12-27T05:10:30.207Z,97720.13
2022-12-27T05:11:50.067Z,97720.94
2022-12-27T05:13:10.108Z,97718.47
2022-12-27T05:14:14.753Z,97723.22
2022-12-27T05:15:16.472Z,97719.81
2022-12-27T05:16:18.087Z,97707.16
2022-12-27T05:17:19.746Z,97720.97
2022-12-27T05:18:21.390Z,97722.31
2022-12-27T05:19:23.045Z,97729.00
2022-12-27T05:20:24.739Z,97729.47
2022-12-27T05:21:26.700Z,97731.09
2022-12-27T05:22:46.451Z,97727.69
2022-12-27T05:24:06.799Z,97732.47
2022-12-27T05:25:28.106Z,97733.25
2022-12-27T05:26:31.371Z,97725.13
2022-12-27T05:27:32.983Z,97727.78
2022-12-27T05:28:34.579Z,97737.25
2022-12-27T05:29:36.122Z,97732.16
2022-12-27T05:30:41.062Z,97731.94
2022-12-27T05:31:42.964Z,97728.47
2022-12-27T05:32:44.540Z,97737.16
2022-12-27T05:33:46.520Z,97737.69
2022-12-27T05:34:48.041Z,97738.78
2022-12-27T05:35:49.609Z,97737.66
2022-12-27T05:36:51.106Z,97746.19
2022-12-27T05:37:55.711Z,97741.44
2022-12-27T05:38:58.473Z,97748.81
2022-12-27T05:39:59.998Z,97741.34
2022-12-27T05:41:02.701Z,97747.69
2022-12-27T05:42:04.383Z,97742.31
2022-12-27T05:43:06.035Z,97747.44
2022-12-27T05:44:07.894Z,97745.94
2022-12-27T05:45:09.590Z,97741.78
2022-12-27T05:46:17.748Z,97743.97
2022-12-27T05:47:19.347Z,97743.41
2022-12-27T05:48:21.929Z,97748.22
2022-12-27T05:49:23.528Z,97747.72
2022-12-27T05:50:25.126Z,97748.81
2022-12-27T05:51:26.643Z,97748.97
2022-12-27T05:52:30.450Z,97748.16
2022-12-27T05:53:31.979Z,97755.19
2022-12-27T05:54:33.580Z,97744.75
2022-12-27T05:55:35.121Z,97745.13
2022-12-27T05:56:37.403Z,97743.06
2022-12-27T05:57:39.068Z,97748.44
2022-12-27T05:58:40.986Z,97745.09
2022-12-27T05:59:42.516Z,97752.50
2022-12-27T06:00:44.033Z,97747.06
2022-12-27T06:01:45.731Z,97747.91
2022-12-27T06:02:47.466Z,97750.09
2022-12-27T06:03:49.119Z,97753.88
2022-12-27T06:04:50.685Z,97757.66
2022-12-27T06:05:53.072Z,97761.41
2022-12-27T06:06:54.649Z,97754.31
2022-12-27T06:07:56.344Z,97761.44
2022-12-27T06:08:58.570Z,97758.28
2022-12-27T06:10:00.147Z,97759.41
2022-12-27T06:11:08.047Z,97759.94
2022-12-27T06:12:09.728Z,97757.06
2022-12-27T06:13:11.364Z,97750.09
2022-12-27T06:14:13.143Z,97755.63
2022-12-27T06:15:16.011Z,97758.03
2022-12-27T06:16:18.913Z,97752.22
2022-12-27T06:17:23.765Z,97761.41
2022-12-27T06:18:25.471Z,97756.03
2022-12-27T06:19:27.498Z,97765.41
2022-12-27T06:20:32.640Z,97757.25
2022-12-27T06:21:34.394Z,97748.69
2022-12-27T06:22:37.125Z,97762.41
2022-12-27T06:23:41.173Z,97759.09
2022-12-27T06:24:44.012Z,97764.78
2022-12-27T06:25:45.730Z,97767.88
2022-12-27T06:26:48.278Z,97764.88
2022-12-27T06:27:49.965Z,97765.53
2022-12-27T06:28:52.540Z,97760.09
2022-12-27T06:29:54.073Z,97767.88
2022-12-27T06:30:57.929Z,97768.00
2022-12-27T06:31:59.695Z,97767.00
2022-12-27T06:33:01.534Z,97766.69
2022-12-27T06:34:03.206Z,97764.47
2022-12-27T06:35:05.541Z,97768.75
2022-12-27T06:36:08.822Z,97771.22
2022-12-27T06:37:10.491Z,97766.03
2022-12-27T06:38:12.037Z,97756.56
2022-12-27T06:39:13.627Z,97762.53
2022-12-27T06:40:15.325Z,97765.38
2022-12-27T06:41:18.540Z,97774.44
2022-12-27T06:42:20.116Z,97767.91
2022-12-27T06:43:21.705Z,97767.72
2022-12-27T06:44:23.267Z,97763.53
2022-12-27T06:45:24.929Z,97763.31
2022-12-27T06:46:26.638Z,97762.59
2022-12-27T06:47:28.219Z,97763.19
2022-12-27T06:48:29.948Z,97763.22
2022-12-27T06:49:31.536Z,97768.56
2022-12-27T06:50:33.107Z,97765.97
2022-12-27T06:51:34.623Z,97773.38
2022-12-27T06:52:36.339Z,97760.94
2022-12-27T06:53:38.259Z,97765.47
2022-12-27T06:54:41.418Z,97756.78
2022-12-27T06:55:42.962Z,97757.03
2022-12-27T06:56:44.712Z,97761.19
2022-12-27T06:57:46.254Z,97763.84
2022-12-27T06:58:49.197Z,97761.28
2022-12-27T06:59:54.031Z,97758.13
2022-12-27T07:00:55.845Z,97753.28
2022-12-27T07:01:57.594Z,97755.47
2022-12-27T07:02:59.232Z,97753.22
2022-12-27T07:04:01.101Z,97755.66
2022-12-27T07:05:02.728Z,97753.38
2022-12-27T07:06:05.688Z,97755.03
2022-12-27T07:07:10.812Z,97755.53
2022-12-27T07:08:15.198Z,97771.25
2022-12-27T07:09:16.863Z,97769.00
2022-12-27T07:10:18.579Z,97759.59
2022-12-27T07:11:22.338Z,97755.34
2022-12-27T07:12:36.301Z,97756.34
2022-12-27T07:13:41.411Z,97760.44
2022-12-27T07:14:43.174Z,97758.13
2022-12-27T07:15:44.803Z,97757.41
2022-12-27T07:16:49.180Z,97758.78
2022-12-27T07:17:50.860Z,97762.00
2022-12-27T07:18:54.242Z,97758.56
2022-12-27T07:19:55.857Z,97761.25
2022-12-27T07:20:57.643Z,97755.47
2022-12-27T07:21:59.201Z,97756.78
2022-12-27T07:23:00.736Z,97754.44
2022-12-27T07:24:02.336Z,97741.97
2022-12-27T07:25:04.583Z,97750.44
2022-12-27T07:26:08.954Z,97749.13
2022-12-27T07:27:10.463Z,97748.84
2022-12-27T07:28:12.002Z,97750.94
2022-12-27T07:29:13.632Z,97755.72
2022-12-27T07:30:15.280Z,97748.84
2022-12-27T07:31:20.121Z,97743.25
2022-12-27T07:32:21.793Z,97747.50
2022-12-27T07:33:23.319Z,97754.09
2022-12-27T07:34:26.124Z,97756.16
2022-12-27T07:35:27.698Z,97744.19
2022-12-27T07:36:34.456Z,97756.06
2022-12-27T07:37:36.069Z,97758.19
2022-12-27T07:38:37.688Z,97758.16
2022-12-27T07:39:39.235Z,97747.47
2022-12-27T07:40:40.906Z,97748.78
2022-12-27T07:41:42.551Z,97744.75
2022-12-27T07:42:44.093Z,97746.81
2022-12-27T07:43:46.192Z,97746.75
2022-12-27T07:44:47.905Z,97748.34
2022-12-27T07:45:49.506Z,97747.78
2022-12-27T07:46:51.326Z,97742.38
2022-12-27T07:47:53.372Z,97742.91
2022-12-27T07:48:56.532Z,97742.91
2022-12-27T07:49:58.116Z,97743.41
2022-12-27T07:50:59.958Z,97741.25
2022-12-27T07:52:01.558Z,97741.16
2022-12-27T07:53:03.232Z,97747.25
2022-12-27T07:54:05.185Z,97738.13
2022-12-27T07:55:07.050Z,97739.44
2022-12-27T07:56:23.454Z,97740.47
2022-12-27T07:57:29.520Z,97742.16
2022-12-27T07:58:31.081Z,97741.66
2022-12-27T07:59:32.716Z,97745.84
2022-12-27T08:00:34.387Z,97742.56
2022-12-27T08:02:01.727Z,97742.25
2022-12-27T08:03:06.586Z,97739.66
2022-12-27T08:04:08.285Z,97743.31
2022-12-27T08:05:10.051Z,97743.25
2022-12-27T08:06:35.122Z,97746.84
2022-12-27T08:07:38.185Z,97746.28
2022-12-27T08:08:43.217Z,97747.94
2022-12-27T08:09:46.552Z,97744.25
2022-12-27T08:10:48.185Z,97743.59
2022-12-27T08:11:49.791Z,97747.47
2022-12-27T08:12:51.348Z,97750.25
2022-12-27T08:13:53.392Z,97751.91
2022-12-27T08:14:54.919Z,97744.06
2022-12-27T08:15:56.592Z,97739.19
2022-12-27T08:17:03.836Z,97742.78
2022-12-27T08:18:05.664Z,97741.91
2022-12-27T08:19:08.623Z,97740.06
2022-12-27T08:20:19.252Z,97737.25
2022-12-27T08:21:21.035Z,97740.34
2022-12-27T08:22:24.169Z,97744.03
2022-12-27T08:23:25.731Z,97743.38
2022-12-27T08:24:27.268Z,97741.19
2022-12-27T08:25:29.749Z,97751.31
2022-12-27T08:26:31.417Z,97747.13
2022-12-27T08:27:33.133Z,97753.25
2022-12-27T08:28:35.110Z,97734.69
2022-12-27T08:29:37.851Z,97739.69
2022-12-27T08:30:41.112Z,97738.09
2022-12-27T08:31:42.662Z,97737.97
2022-12-27T08:32:44.195Z,97744.31
2022-12-27T08:33:45.819Z,97730.28
2022-12-27T08:34:47.888Z,97738.72
2022-12-27T08:35:54.059Z,97735.97
2022-12-27T08:36:57.411Z,97743.31
2022-12-27T08:38:02.458Z,97735.63
2022-12-27T08:39:04.078Z,97729.13
2022-12-27T08:40:06.278Z,97730.63
2022-12-27T08:41:07.836Z,97728.34
2022-12-27T08:42:12.673Z,97734.69
2022-12-27T08:43:14.607Z,97741.22
2022-12-27T08:44:16.194Z,97735.28
2022-12-27T08:45:17.738Z,97741.56
2022-12-27T08:46:19.713Z,97730.53
2022-12-27T08:47:21.676Z,97729.50
2022-12-27T08:48:23.261Z,97736.97
2022-12-27T08:49:24.871Z,97727.59
2022-12-27T08:50:27.774Z,97733.19
2022-12-27T08:51:35.950Z,97730.81
2022-12-27T08:52:41.883Z,97732.25
2022-12-27T08:53:43.633Z,97737.44
2022-12-27T08:54:45.170Z,97736.25
2022-12-27T08:55:46.760Z,97740.03
2022-12-27T08:56:48.278Z,97728.91
2022-12-27T08:57:49.909Z,97728.19
2022-12-27T08:58:51.483Z,97726.34
2022-12-27T08:59:53.109Z,97721.59
2022-12-27T09:00:54.821Z,97721.56
2022-12-27T09:01:56.555Z,97722.69
2022-12-27T09:02:58.729Z,97712.69
2022-12-27T09:04:00.294Z,97722.72
2022-12-27T09:05:01.939Z,97725.00
2022-12-27T09:06:16.268Z,97719.69
2022-12-27T09:07:17.863Z,97725.97
2022-12-27T09:08:19.467Z,97722.63
2022-12-27T09:09:21.252Z,97720.09
2022-12-27T09:10:23.967Z,97709.41
2022-12-27T09:11:30.560Z,97719.84
2022-12-27T09:12:33.614Z,97714.19
2022-12-27T09:13:35.202Z,97712.72
2022-12-27T09:14:36.799Z,97711.78
2022-12-27T09:15:38.752Z,97704.91
2022-12-27T09:16:40.404Z,97701.94
2022-12-27T09:17:42.272Z,97700.69
2022-12-27T09:18:44.372Z,97697.53
2022-12-27T09:19:45.922Z,97694.66
2022-12-27T09:20:47.497Z,97697.63
2022-12-27T09:21:49.033Z,97689.69
2022-12-27T09:22:52.131Z,97694.19
2022-12-27T09:23:55.220Z,97686.50
2022-12-27T09:24:57.100Z,97682.09
2022-12-27T09:25:58.690Z,97683.69
2022-12-27T09:27:00.207Z,97679.22
2022-12-27T09:28:02.070Z,97678.91
2022-12-27T09:29:04.288Z,97678.38
2022-12-27T09:30:07.750Z,97670.09
2022-12-27T09:31:11.079Z,97672.88
2022-12-27T09:32:12.640Z,97662.22
2022-12-27T09:33:14.161Z,97672.09
2022-12-27T09:34:15.728Z,97663.81
2022-12-27T09:35:17.578Z,97658.00
2022-12-27T09:36:21.648Z,97652.59
2022-12-27T09:37:23.190Z,97656.31
2022-12-27T09:38:24.719Z,97657.97
2022-12-27T09:39:26.238Z,97656.97
2022-12-27T09:40:27.831Z,97643.75
2022-12-27T09:43:20.770Z,97668.25
2022-12-27T09:44:46.703Z,97649.28
2022-12-27T09:45:52.044Z,97649.34
2022-12-27T09:47:12.647Z,97638.53
2022-12-27T09:48:32.592Z,97631.69
2022-12-27T09:49:45.650Z,97640.59
2022-12-27T09:50:55.532Z,97638.63
2022-12-27T09:52:13.056Z,97627.16
2022-12-27T09:53:24.911Z,97639.66
2022-12-27T09:54:37.296Z,97637.28
2022-12-27T09:55:51.703Z,97639.56
2022-12-27T09:57:18.913Z,97636.53
2022-12-27T09:58:40.589Z,97627.75
2022-12-27T09:59:47.205Z,97624.81
2022-12-27T10:00:52.794Z,97614.09
2022-12-27T10:01:54.427Z,97620.63
2022-12-27T10:02:57.983Z,97615.25
2022-12-27T10:04:00.549Z,97598.59
2022-12-27T10:05:20.843Z,97602.41
2022-12-27T10:06:31.459Z,97605.16
2022-12-27T10:07:57.507Z,97601.78
2022-12-27T10:09:21.505Z,97601.63
2022-12-27T10:10:35.406Z,97595.88
2022-12-27T10:11:47.719Z,97592.66
2022-12-27T10:12:55.384Z,97589.50
2022-12-27T10:14:00.916Z,97585.84
2022-12-27T10:15:14.772Z,97580.00
2022-12-27T10:16:40.492Z,97586.09
2022-12-27T10:17:42.014Z,97583.84
2022-12-27T10:19:32.308Z,97587.44
2022-12-27T10:20:55.403Z,97580.44
2022-12-27T10:22:28.919Z,97575.09
2022-12-27T10:23:34.271Z,97579.19
2022-12-27T10:24:48.990Z,97574.34
2022-12-27T10:25:58.101Z,97574.72
2022-12-27T10:26:59.988Z,97565.31
2022-12-27T10:28:31.479Z,97565.91
2022-12-27T10:29:34.149Z,97566.34
2022-12-27T10:30:35.749Z,97561.34
2022-12-27T10:31:42.628Z,97566.59
2022-12-27T10:32:44.604Z,97564.84
2022-12-27T10:33:48.485Z,97563.47
2022-12-27T10:35:00.618Z,97552.63
2022-12-27T10:36:14.460Z,97560.91
2022-12-27T10:37:16.640Z,97558.75
2022-12-27T10:38:19.448Z,97558.78
2022-12-27T10:39:27.798Z,97555.97
2022-12-27T10:40:43.292Z,97549.03
2022-12-27T10:41:50.686Z,97555.34
2022-12-27T10:43:02.880Z,97557.28
2022-12-27T10:44:11.369Z,97552.75
2022-12-27T10:45:42.741Z,97547.09
2022-12-27T10:46:51.222Z,97545.38
2022-12-27T10:47:56.019Z,97542.56
2022-12-27T10:49:23.294Z,97540.34
2022-12-27T10:50:27.684Z,97536.78
2022-12-27T10:51:39.416Z,97538.78
2022-12-27T10:52:41.053Z,97538.63
2022-12-27T10:53:45.601Z,97542.09
2022-12-27T10:54:52.513Z,97527.56
2022-12-27T10:56:09.971Z,97534.66
2022-12-27T10:57:26.986Z,97528.34
2022-12-27T10:58:31.469Z,97520.63
2022-12-27T10:59:33.083Z,97522.03
2022-12-27T11:00:34.910Z,97521.84
2022-12-27T11:01:36.661Z,97518.72
2022-12-27T11:02:49.947Z,97515.91
2022-12-27T11:03:51.967Z,97517.34
2022-12-27T11:04:59.464Z,97507.09
2022-12-27T11:06:07.529Z,97508.81
2022-12-27T11:07:18.777Z,97508.19
2022-12-27T11:08:21.410Z,97503.81
2022-12-27T11:09:39.184Z,97508.53
2022-12-27T11:10:40.881Z,97502.25
2022-12-27T11:11:42.420Z,97505.56
2022-12-27T11:13:03.436Z,97504.16
2022-12-27T11:14:16.024Z,97501.81
2022-12-27T11:15:20.724Z,97494.88
2022-12-27T11:16:35.025Z,97500.22
2022-12-27T11:17:46.962Z,97500.06
2022-12-27T11:18:52.591Z,97497.22
2022-12-27T11:19:56.216Z,97496.44
2022-12-27T11:20:59.367Z,97497.53
2022-12-27T11:22:07.049Z,97498.66
2022-12-27T11:23:08.613Z,97490.16
2022-12-27T11:24:16.411Z,97487.16
2022-12-27T11:25:18.669Z,97486.50
2022-12-27T11:26:26.540Z,97483.03
2022-12-27T11:27:30.269Z,97485.72
2022-12-27T11:28:38.401Z,97477.84
2022-12-27T11:29:45.579Z,97473.91
2022-12-27T11:30:59.165Z,97468.19
2022-12-27T11:32:07.339Z,97471.03
2022-12-27T11:33:26.896Z,97476.25
2022-12-27T11:34:36.119Z,97468.84
2022-12-27T11:35:47.621Z,97475.47
2022-12-27T11:36:53.336Z,97481.59
2022-12-27T11:37:55.258Z,97485.41
2022-12-27T11:38:57.238Z,97479.72
2022-12-27T11:40:21.636Z,97476.88
2022-12-27T11:41:37.106Z,97478.47
2022-12-27T11:42:49.591Z,97471.22
2022-12-27T11:43:56.192Z,97461.91
2022-12-27T11:45:07.224Z,97456.84
2022-12-27T11:46:34.189Z,97459.22
2022-12-27T11:47:54.132Z,97458.75
2022-12-27T11:48:58.526Z,97459.69
2022-12-27T11:50:22.572Z,97460.75
2022-12-27T11:51:43.035Z,97457.78
2022-12-27T11:52:53.630Z,97453.69
2022-12-27T11:54:04.386Z,97452.22
2022-12-27T11:55:21.133Z,97450.81
2022-12-27T11:56:27.233Z,97454.28
2022-12-27T11:58:04.174Z,97453.06
2022-12-27T11:59:30.727Z,97450.69
2022-12-27T12:00:54.622Z,97455.25
2022-12-27T12:02:21.220Z,97451.81
2022-12-27T12:03:55.835Z,97450.88
2022-12-27T12:05:15.833Z,97453.69
2022-12-27T12:06:34.451Z,97448.94
2022-12-27T12:07:54.585Z,97449.75
2022-12-27T12:09:23.341Z,97446.72
2022-12-27T12:10:42.042Z,97446.72
2022-12-27T12:11:55.508Z,97448.13
2022-12-27T12:13:27.880Z,97448.31
2022-12-27T12:15:21.384Z,97441.88
2022-12-27T12:17:07.147Z,97444.19
2022-12-27T12:18:14.424Z,97435.53
2022-12-27T12:19:41.435Z,97430.03
2022-12-27T12:21:16.901Z,97430.19
2022-12-27T12:22:30.483Z,97432.88
2022-12-27T12:24:10.613Z,97427.66
2022-12-27T12:25:21.031Z,97423.25
2022-12-27T12:26:25.177Z,97428.75
2022-12-27T12:27:41.558Z,97418.69
2022-12-27T12:29:18.316Z,97423.06
2022-12-27T12:31:07.511Z,97419.00
2022-12-27T12:32:23.721Z,97414.25
2022-12-27T12:33:43.305Z,97421.53
2022-12-27T12:35:23.927Z,97417.72
2022-12-27T12:36:49.149Z,97416.78
2022-12-27T12:38:20.687Z,97411.56
2022-12-27T12:39:30.884Z,97422.13
2022-12-27T12:41:10.090Z,97416.09
2022-12-27T12:42:30.059Z,97419.81
2022-12-27T12:43:56.947Z,97421.72
2022-12-27T12:45:16.521Z,97414.50
2022-12-27T12:46:27.508Z,97415.16
2022-12-27T12:47:44.675Z,97414.50
2022-12-27T12:48:49.088Z,97417.66
2022-12-27T12:50:21.368Z,97421.13
2022-12-27T12:51:35.642Z,97420.94
2022-12-27T12:52:48.977Z,97428.31
2022-12-27T12:54:27.014Z,97419.47
2022-12-27T12:55:38.863Z,97423.69
2022-12-27T12:57:28.487Z,97430.59
2022-12-27T12:58:46.194Z,97426.81
2022-12-27T13:00:09.342Z,97419.03
2022-12-27T13:01:25.992Z,97429.00
2022-12-27T13:02:36.829Z,97421.56
2022-12-27T13:03:56.060Z,97422.75
2022-12-27T13:05:15.952Z,97417.25
2022-12-27T13:06:40.188Z,97416.16
2022-12-27T13:07:55.821Z,97424.19
2022-12-27T13:09:34.783Z,97418.81
2022-12-27T13:11:14.424Z,97423.06
2022-12-27T13:12:30.966Z,97417.69
2022-12-27T13:13:48.145Z,97413.88
2022-12-27T13:15:13.604Z,97405.63
2022-12-27T13:16:34.743Z,97413.22
2022-12-27T13:17:52.856Z,97414.81
2022-12-27T13:19:28.909Z,97417.50
2022-12-27T13:21:00.542Z,97417.50
2022-12-27T13:22:05.150Z,97417.50
2022-12-27T13:23:17.303Z,97414.16
2022-12-27T13:24:29.416Z,97413.34
2022-12-27T13:25:55.332Z,97417.31
2022-12-27T13:27:13.754Z,97422.22
2022-12-27T13:28:34.353Z,97425.69
2022-12-27T13:30:11.298Z,97422.69
2022-12-27T13:31:37.684Z,97418.22
2022-12-27T13:33:02.041Z,97416.13
2022-12-27T13:34:34.505Z,97413.31